sensor_id;sensor_type;location;lat;lon;timestamp;P1;durP1;ratioP1;P2;durP2;ratioP2
3066;SDS011;1544;48.834;9.194;2022-10-23T00:04:11;8.90;;;4.80;;
3066;SDS011;1544;48.834;9.194;2022-10-23T00:06:52;7.80;;;4.87;;
3066;SDS011;1544;48.834;9.194;2022-10-23T00:09:27;12.33;;;5.20;;
3066;SDS011;1544;48.834;9.194;2022-10-23T00:12:02;6.20;;;5.27;;
3066;SDS011;1544;48.834;9.194;2022-10-23T00:14:37;6.90;;;4.70;;
3066;SDS011;1544;48.834;9.194;2022-10-23T00:17:12;10.10;;;5.40;;
3066;SDS011;1544;48.834;9.194;2022-10-23T00:19:47;7.20;;;5.87;;
3066;SDS011;1544;48.834;9.194;2022-10-23T00:22:22;5.10;;;4.60;;
3066;SDS011;1544;48.834;9.194;2022-10-23T00:24:57;6.20;;;5.67;;
3066;SDS011;1544;48.834;9.194;2022-10-23T00:27:32;6.00;;;5.07;;
3066;SDS011;1544;48.834;9.194;2022-10-23T00:30:07;7.40;;;5.53;;
3066;SDS011;1544;48.834;9.194;2022-10-23T00:32:43;6.03;;;4.73;;
3066;SDS011;1544;48.834;9.194;2022-10-23T00:35:18;5.53;;;4.60;;
3066;SDS011;1544;48.834;9.194;2022-10-23T00:37:53;10.00;;;5.10;;
3066;SDS011;1544;48.834;9.194;2022-10-23T00:40:27;5.77;;;5.23;;
3066;SDS011;1544;48.834;9.194;2022-10-23T00:43:03;6.60;;;4.23;;
3066;SDS011;1544;48.834;9.194;2022-10-23T00:45:40;5.80;;;5.00;;
3066;SDS011;1544;48.834;9.194;2022-10-23T00:48:15;5.83;;;4.60;;
3066;SDS011;1544;48.834;9.194;2022-10-23T00:50:51;7.57;;;4.90;;
3066;SDS011;1544;48.834;9.194;2022-10-23T00:53:28;7.63;;;5.20;;
3066;SDS011;1544;48.834;9.194;2022-10-23T00:56:03;5.70;;;4.80;;
3066;SDS011;1544;48.834;9.194;2022-10-23T00:58:38;5.80;;;4.57;;
3066;SDS011;1544;48.834;9.194;2022-10-23T01:01:17;5.30;;;4.80;;
3066;SDS011;1544;48.834;9.194;2022-10-23T01:03:56;6.83;;;4.83;;
3066;SDS011;1544;48.834;9.194;2022-10-23T01:10:12;5.00;;;4.60;;
3066;SDS011;1544;48.834;9.194;2022-10-23T01:12:37;5.10;;;4.70;;
3066;SDS011;1544;48.834;9.194;2022-10-23T01:15:32;5.77;;;4.60;;
3066;SDS011;1544;48.834;9.194;2022-10-23T01:18:52;7.50;;;4.50;;
3066;SDS011;1544;48.834;9.194;2022-10-23T01:21:55;6.60;;;4.23;;
3066;SDS011;1544;48.834;9.194;2022-10-23T01:27:38;5.70;;;4.77;;
3066;SDS011;1544;48.834;9.194;2022-10-23T01:30:15;7.43;;;4.70;;
3066;SDS011;1544;48.834;9.194;2022-10-23T01:33:03;5.67;;;4.23;;
3066;SDS011;1544;48.834;9.194;2022-10-23T01:36:06;6.20;;;5.10;;
3066;SDS011;1544;48.834;9.194;2022-10-23T01:39:00;5.80;;;5.30;;
3066;SDS011;1544;48.834;9.194;2022-10-23T01:41:45;6.10;;;4.90;;
3066;SDS011;1544;48.834;9.194;2022-10-23T01:47:27;5.53;;;5.03;;
3066;SDS011;1544;48.834;9.194;2022-10-23T01:50:12;8.60;;;5.80;;
3066;SDS011;1544;48.834;9.194;2022-10-23T01:52:51;6.87;;;4.83;;
3066;SDS011;1544;48.834;9.194;2022-10-23T01:55:26;8.37;;;5.63;;
3066;SDS011;1544;48.834;9.194;2022-10-23T01:58:04;6.63;;;5.70;;
3066;SDS011;1544;48.834;9.194;2022-10-23T02:00:45;5.80;;;4.47;;
3066;SDS011;1544;48.834;9.194;2022-10-23T02:03:21;5.40;;;4.90;;
3066;SDS011;1544;48.834;9.194;2022-10-23T02:05:58;5.23;;;4.73;;
3066;SDS011;1544;48.834;9.194;2022-10-23T02:08:33;5.07;;;4.57;;
3066;SDS011;1544;48.834;9.194;2022-10-23T02:11:09;5.43;;;4.33;;
3066;SDS011;1544;48.834;9.194;2022-10-23T02:14:11;6.93;;;5.70;;
3066;SDS011;1544;48.834;9.194;2022-10-23T02:16:48;5.00;;;4.50;;
3066;SDS011;1544;48.834;9.194;2022-10-23T02:22:59;7.40;;;5.80;;
3066;SDS011;1544;48.834;9.194;2022-10-23T02:26:06;6.33;;;4.90;;
3066;SDS011;1544;48.834;9.194;2022-10-23T02:28:56;7.40;;;5.20;;
3066;SDS011;1544;48.834;9.194;2022-10-23T02:31:42;5.13;;;4.60;;
3066;SDS011;1544;48.834;9.194;2022-10-23T02:34:17;5.20;;;4.70;;
3066;SDS011;1544;48.834;9.194;2022-10-23T02:36:52;5.57;;;4.73;;
3066;SDS011;1544;48.834;9.194;2022-10-23T02:39:28;7.00;;;4.40;;
3066;SDS011;1544;48.834;9.194;2022-10-23T02:45:10;5.10;;;4.70;;
3066;SDS011;1544;48.834;9.194;2022-10-23T02:51:06;6.43;;;5.23;;
3066;SDS011;1544;48.834;9.194;2022-10-23T02:53:55;5.23;;;4.73;;
3066;SDS011;1544;48.834;9.194;2022-10-23T02:56:53;4.70;;;4.30;;
3066;SDS011;1544;48.834;9.194;2022-10-23T02:59:52;5.40;;;5.00;;
3066;SDS011;1544;48.834;9.194;2022-10-23T03:02:39;5.83;;;3.80;;
3066;SDS011;1544;48.834;9.194;2022-10-23T03:05:23;5.40;;;4.23;;
3066;SDS011;1544;48.834;9.194;2022-10-23T03:08:05;4.77;;;4.10;;
3066;SDS011;1544;48.834;9.194;2022-10-23T03:10:42;7.07;;;4.83;;
3066;SDS011;1544;48.834;9.194;2022-10-23T03:13:18;6.40;;;5.10;;
3066;SDS011;1544;48.834;9.194;2022-10-23T03:15:53;5.33;;;4.87;;
3066;SDS011;1544;48.834;9.194;2022-10-23T03:18:28;5.43;;;4.93;;
3066;SDS011;1544;48.834;9.194;2022-10-23T03:21:05;8.53;;;4.40;;
3066;SDS011;1544;48.834;9.194;2022-10-23T03:23:40;5.37;;;4.97;;
3066;SDS011;1544;48.834;9.194;2022-10-23T03:26:15;5.27;;;4.87;;
3066;SDS011;1544;48.834;9.194;2022-10-23T03:28:50;5.50;;;4.97;;
3066;SDS011;1544;48.834;9.194;2022-10-23T03:31:27;4.27;;;3.97;;
3066;SDS011;1544;48.834;9.194;2022-10-23T03:34:05;4.90;;;4.37;;
3066;SDS011;1544;48.834;9.194;2022-10-23T03:36:46;5.10;;;4.30;;
3066;SDS011;1544;48.834;9.194;2022-10-23T03:39:21;4.63;;;4.23;;
3066;SDS011;1544;48.834;9.194;2022-10-23T03:41:56;5.30;;;4.30;;
3066;SDS011;1544;48.834;9.194;2022-10-23T03:44:32;3.87;;;3.57;;
3066;SDS011;1544;48.834;9.194;2022-10-23T03:47:08;10.83;;;4.17;;
3066;SDS011;1544;48.834;9.194;2022-10-23T03:49:45;4.67;;;4.07;;
3066;SDS011;1544;48.834;9.194;2022-10-23T03:52:20;5.67;;;4.00;;
3066;SDS011;1544;48.834;9.194;2022-10-23T03:54:57;4.33;;;3.93;;
3066;SDS011;1544;48.834;9.194;2022-10-23T03:57:32;5.50;;;4.30;;
3066;SDS011;1544;48.834;9.194;2022-10-23T04:00:07;4.30;;;3.90;;
3066;SDS011;1544;48.834;9.194;2022-10-23T04:02:52;4.40;;;4.00;;
3066;SDS011;1544;48.834;9.194;2022-10-23T04:05:27;4.43;;;4.13;;
3066;SDS011;1544;48.834;9.194;2022-10-23T04:08:05;3.83;;;3.53;;
3066;SDS011;1544;48.834;9.194;2022-10-23T04:10:40;3.77;;;3.47;;
3066;SDS011;1544;48.834;9.194;2022-10-23T04:13:15;4.50;;;4.10;;
3066;SDS011;1544;48.834;9.194;2022-10-23T04:15:50;7.93;;;4.50;;
3066;SDS011;1544;48.834;9.194;2022-10-23T04:18:27;4.83;;;4.43;;
3066;SDS011;1544;48.834;9.194;2022-10-23T04:21:02;4.50;;;4.07;;
3066;SDS011;1544;48.834;9.194;2022-10-23T04:23:39;4.17;;;3.80;;
3066;SDS011;1544;48.834;9.194;2022-10-23T04:26:24;5.20;;;4.37;;
3066;SDS011;1544;48.834;9.194;2022-10-23T04:29:00;5.50;;;4.00;;
3066;SDS011;1544;48.834;9.194;2022-10-23T04:31:36;4.87;;;4.40;;
3066;SDS011;1544;48.834;9.194;2022-10-23T04:34:11;4.00;;;3.70;;
3066;SDS011;1544;48.834;9.194;2022-10-23T04:36:46;5.17;;;4.67;;
3066;SDS011;1544;48.834;9.194;2022-10-23T04:39:21;4.60;;;4.17;;
3066;SDS011;1544;48.834;9.194;2022-10-23T04:41:56;8.03;;;4.43;;
3066;SDS011;1544;48.834;9.194;2022-10-23T04:44:32;4.30;;;3.90;;
3066;SDS011;1544;48.834;9.194;2022-10-23T04:47:07;4.73;;;4.17;;
3066;SDS011;1544;48.834;9.194;2022-10-23T04:49:51;4.73;;;4.17;;
3066;SDS011;1544;48.834;9.194;2022-10-23T04:52:52;4.83;;;4.43;;
3066;SDS011;1544;48.834;9.194;2022-10-23T04:55:48;5.33;;;3.87;;
3066;SDS011;1544;48.834;9.194;2022-10-23T04:58:32;3.93;;;3.63;;
3066;SDS011;1544;48.834;9.194;2022-10-23T05:01:08;4.50;;;4.10;;
3066;SDS011;1544;48.834;9.194;2022-10-23T05:03:44;4.90;;;4.50;;
3066;SDS011;1544;48.834;9.194;2022-10-23T05:06:19;4.83;;;4.33;;
3066;SDS011;1544;48.834;9.194;2022-10-23T05:09:13;5.23;;;4.70;;
3066;SDS011;1544;48.834;9.194;2022-10-23T05:12:06;5.50;;;5.00;;
3066;SDS011;1544;48.834;9.194;2022-10-23T05:14:42;5.67;;;4.80;;
3066;SDS011;1544;48.834;9.194;2022-10-23T05:17:22;5.83;;;4.40;;
3066;SDS011;1544;48.834;9.194;2022-10-23T05:20:04;4.53;;;4.13;;
3066;SDS011;1544;48.834;9.194;2022-10-23T05:22:46;5.63;;;4.50;;
3066;SDS011;1544;48.834;9.194;2022-10-23T05:25:28;5.60;;;4.00;;
3066;SDS011;1544;48.834;9.194;2022-10-23T05:28:17;5.70;;;4.07;;
3066;SDS011;1544;48.834;9.194;2022-10-23T05:30:53;4.57;;;4.13;;
3066;SDS011;1544;48.834;9.194;2022-10-23T05:33:33;6.17;;;4.20;;
3066;SDS011;1544;48.834;9.194;2022-10-23T05:36:10;4.83;;;4.40;;
3066;SDS011;1544;48.834;9.194;2022-10-23T05:38:47;3.77;;;3.57;;
3066;SDS011;1544;48.834;9.194;2022-10-23T05:41:24;4.23;;;3.93;;
3066;SDS011;1544;48.834;9.194;2022-10-23T05:44:03;5.60;;;3.90;;
3066;SDS011;1544;48.834;9.194;2022-10-23T05:46:57;3.30;;;3.10;;
3066;SDS011;1544;48.834;9.194;2022-10-23T05:49:54;4.07;;;3.77;;
3066;SDS011;1544;48.834;9.194;2022-10-23T05:52:53;3.70;;;3.40;;
3066;SDS011;1544;48.834;9.194;2022-10-23T05:55:53;3.13;;;2.83;;
3066;SDS011;1544;48.834;9.194;2022-10-23T05:58:46;5.60;;;3.50;;
3066;SDS011;1544;48.834;9.194;2022-10-23T06:01:53;3.57;;;3.27;;
3066;SDS011;1544;48.834;9.194;2022-10-23T06:04:40;4.10;;;3.80;;
3066;SDS011;1544;48.834;9.194;2022-10-23T06:07:38;4.23;;;3.80;;
3066;SDS011;1544;48.834;9.194;2022-10-23T06:10:14;3.47;;;3.27;;
3066;SDS011;1544;48.834;9.194;2022-10-23T06:12:52;4.17;;;3.50;;
3066;SDS011;1544;48.834;9.194;2022-10-23T06:15:27;4.87;;;3.80;;
3066;SDS011;1544;48.834;9.194;2022-10-23T06:18:06;3.30;;;3.10;;
3066;SDS011;1544;48.834;9.194;2022-10-23T06:20:45;3.40;;;3.00;;
3066;SDS011;1544;48.834;9.194;2022-10-23T06:23:31;3.90;;;3.60;;
3066;SDS011;1544;48.834;9.194;2022-10-23T06:26:20;4.73;;;3.67;;
3066;SDS011;1544;48.834;9.194;2022-10-23T06:29:27;5.87;;;3.43;;
3066;SDS011;1544;48.834;9.194;2022-10-23T06:32:02;4.17;;;3.87;;
3066;SDS011;1544;48.834;9.194;2022-10-23T06:34:37;3.80;;;3.50;;
3066;SDS011;1544;48.834;9.194;2022-10-23T06:37:14;5.93;;;3.60;;
3066;SDS011;1544;48.834;9.194;2022-10-23T06:39:52;4.00;;;3.70;;
3066;SDS011;1544;48.834;9.194;2022-10-23T06:43:06;5.50;;;3.93;;
3066;SDS011;1544;48.834;9.194;2022-10-23T06:46:03;3.60;;;3.40;;
3066;SDS011;1544;48.834;9.194;2022-10-23T06:49:07;3.23;;;2.70;;
3066;SDS011;1544;48.834;9.194;2022-10-23T06:51:51;3.17;;;2.97;;
3066;SDS011;1544;48.834;9.194;2022-10-23T06:54:28;5.80;;;3.63;;
3066;SDS011;1544;48.834;9.194;2022-10-23T06:57:24;3.20;;;2.90;;
3066;SDS011;1544;48.834;9.194;2022-10-23T06:59:59;4.23;;;3.30;;
3066;SDS011;1544;48.834;9.194;2022-10-23T07:02:34;4.70;;;3.53;;
3066;SDS011;1544;48.834;9.194;2022-10-23T07:05:09;3.67;;;3.37;;
3066;SDS011;1544;48.834;9.194;2022-10-23T07:07:47;4.93;;;3.43;;
3066;SDS011;1544;48.834;9.194;2022-10-23T07:10:29;3.40;;;3.13;;
3066;SDS011;1544;48.834;9.194;2022-10-23T07:13:06;3.37;;;3.07;;
3066;SDS011;1544;48.834;9.194;2022-10-23T07:16:36;3.43;;;3.20;;
3066;SDS011;1544;48.834;9.194;2022-10-23T07:19:05;3.40;;;3.20;;
3066;SDS011;1544;48.834;9.194;2022-10-23T07:21:52;3.53;;;3.30;;
3066;SDS011;1544;48.834;9.194;2022-10-23T07:24:47;4.63;;;3.30;;
3066;SDS011;1544;48.834;9.194;2022-10-23T07:27:37;3.77;;;2.80;;
3066;SDS011;1544;48.834;9.194;2022-10-23T07:30:15;5.40;;;3.80;;
3066;SDS011;1544;48.834;9.194;2022-10-23T07:32:56;3.67;;;3.47;;
3066;SDS011;1544;48.834;9.194;2022-10-23T07:35:44;2.53;;;2.33;;
3066;SDS011;1544;48.834;9.194;2022-10-23T07:38:26;3.40;;;3.10;;
3066;SDS011;1544;48.834;9.194;2022-10-23T07:41:01;3.10;;;2.73;;
3066;SDS011;1544;48.834;9.194;2022-10-23T07:43:37;2.73;;;2.53;;
3066;SDS011;1544;48.834;9.194;2022-10-23T07:46:13;3.03;;;2.70;;
3066;SDS011;1544;48.834;9.194;2022-10-23T07:48:48;3.47;;;3.00;;
3066;SDS011;1544;48.834;9.194;2022-10-23T07:51:23;3.33;;;2.60;;
3066;SDS011;1544;48.834;9.194;2022-10-23T07:54:06;3.13;;;2.60;;
3066;SDS011;1544;48.834;9.194;2022-10-23T07:57:19;3.07;;;2.83;;
3066;SDS011;1544;48.834;9.194;2022-10-23T08:00:02;2.73;;;2.53;;
3066;SDS011;1544;48.834;9.194;2022-10-23T08:02:46;3.77;;;2.53;;
3066;SDS011;1544;48.834;9.194;2022-10-23T08:05:22;2.93;;;2.50;;
3066;SDS011;1544;48.834;9.194;2022-10-23T08:08:04;3.57;;;3.27;;
3066;SDS011;1544;48.834;9.194;2022-10-23T08:10:39;2.37;;;2.20;;
3066;SDS011;1544;48.834;9.194;2022-10-23T08:13:18;2.70;;;2.60;;
3066;SDS011;1544;48.834;9.194;2022-10-23T08:16:02;2.60;;;2.50;;
3066;SDS011;1544;48.834;9.194;2022-10-23T08:18:56;2.67;;;2.50;;
3066;SDS011;1544;48.834;9.194;2022-10-23T08:21:32;2.13;;;2.00;;
3066;SDS011;1544;48.834;9.194;2022-10-23T08:24:08;3.13;;;2.60;;
3066;SDS011;1544;48.834;9.194;2022-10-23T08:26:50;2.00;;;1.80;;
3066;SDS011;1544;48.834;9.194;2022-10-23T08:29:29;3.07;;;2.87;;
3066;SDS011;1544;48.834;9.194;2022-10-23T08:32:05;3.00;;;2.80;;
3066;SDS011;1544;48.834;9.194;2022-10-23T08:34:59;1.80;;;1.70;;
3066;SDS011;1544;48.834;9.194;2022-10-23T08:37:37;2.57;;;1.90;;
3066;SDS011;1544;48.834;9.194;2022-10-23T08:40:15;1.70;;;1.60;;
3066;SDS011;1544;48.834;9.194;2022-10-23T08:43:37;1.73;;;1.63;;
3066;SDS011;1544;48.834;9.194;2022-10-23T08:46:29;1.90;;;1.80;;
3066;SDS011;1544;48.834;9.194;2022-10-23T08:52:25;1.63;;;1.53;;
3066;SDS011;1544;48.834;9.194;2022-10-23T08:58:02;2.93;;;1.97;;
3066;SDS011;1544;48.834;9.194;2022-10-23T09:00:50;5.50;;;1.97;;
3066;SDS011;1544;48.834;9.194;2022-10-23T09:03:26;1.60;;;1.50;;
3066;SDS011;1544;48.834;9.194;2022-10-23T09:17:43;1.40;;;1.30;;
3066;SDS011;1544;48.834;9.194;2022-10-23T09:20:24;1.60;;;1.40;;
3066;SDS011;1544;48.834;9.194;2022-10-23T09:23:14;2.80;;;2.40;;
3066;SDS011;1544;48.834;9.194;2022-10-23T09:25:59;1.30;;;1.20;;
3066;SDS011;1544;48.834;9.194;2022-10-23T09:28:42;1.57;;;1.47;;
3066;SDS011;1544;48.834;9.194;2022-10-23T09:31:29;1.60;;;1.50;;
3066;SDS011;1544;48.834;9.194;2022-10-23T09:34:04;2.10;;;1.97;;
3066;SDS011;1544;48.834;9.194;2022-10-23T09:36:48;1.50;;;1.40;;
3066;SDS011;1544;48.834;9.194;2022-10-23T09:42:19;2.53;;;1.30;;
3066;SDS011;1544;48.834;9.194;2022-10-23T09:44:57;1.73;;;1.63;;
3066;SDS011;1544;48.834;9.194;2022-10-23T09:47:33;1.97;;;1.60;;
3066;SDS011;1544;48.834;9.194;2022-10-23T09:50:18;3.67;;;2.10;;
3066;SDS011;1544;48.834;9.194;2022-10-23T09:52:54;1.90;;;1.80;;
3066;SDS011;1544;48.834;9.194;2022-10-23T09:55:30;1.93;;;1.70;;
3066;SDS011;1544;48.834;9.194;2022-10-23T09:58:16;1.63;;;1.53;;
3066;SDS011;1544;48.834;9.194;2022-10-23T10:01:05;1.53;;;1.43;;
3066;SDS011;1544;48.834;9.194;2022-10-23T10:03:52;2.60;;;1.60;;
3066;SDS011;1544;48.834;9.194;2022-10-23T10:06:31;2.77;;;1.73;;
3066;SDS011;1544;48.834;9.194;2022-10-23T10:09:09;1.50;;;1.40;;
3066;SDS011;1544;48.834;9.194;2022-10-23T10:11:50;1.40;;;1.30;;
3066;SDS011;1544;48.834;9.194;2022-10-23T10:17:42;1.10;;;1.10;;
3066;SDS011;1544;48.834;9.194;2022-10-23T10:23:44;1.40;;;1.30;;
3066;SDS011;1544;48.834;9.194;2022-10-23T10:29:40;1.40;;;1.30;;
3066;SDS011;1544;48.834;9.194;2022-10-23T10:58:14;1.50;;;1.40;;
3066;SDS011;1544;48.834;9.194;2022-10-23T11:01:00;1.37;;;1.20;;
3066;SDS011;1544;48.834;9.194;2022-10-23T11:03:45;4.07;;;1.10;;
3066;SDS011;1544;48.834;9.194;2022-10-23T11:06:28;1.83;;;1.20;;
3066;SDS011;1544;48.834;9.194;2022-10-23T11:09:16;1.10;;;1.10;;
3066;SDS011;1544;48.834;9.194;2022-10-23T11:11:55;2.20;;;1.40;;
3066;SDS011;1544;48.834;9.194;2022-10-23T11:14:31;2.90;;;1.20;;
3066;SDS011;1544;48.834;9.194;2022-10-23T11:17:09;2.20;;;1.40;;
3066;SDS011;1544;48.834;9.194;2022-10-23T11:22:51;1.63;;;1.20;;
3066;SDS011;1544;48.834;9.194;2022-10-23T11:38:41;1.10;;;1.00;;
3066;SDS011;1544;48.834;9.194;2022-10-23T11:41:20;1.17;;;1.10;;
3066;SDS011;1544;48.834;9.194;2022-10-23T11:44:01;1.43;;;1.10;;
3066;SDS011;1544;48.834;9.194;2022-10-23T11:46:39;2.80;;;1.50;;
3066;SDS011;1544;48.834;9.194;2022-10-23T11:49:20;1.30;;;1.20;;
3066;SDS011;1544;48.834;9.194;2022-10-23T11:51:59;1.17;;;1.10;;
3066;SDS011;1544;48.834;9.194;2022-10-23T11:54:38;1.80;;;1.70;;
3066;SDS011;1544;48.834;9.194;2022-10-23T11:57:14;3.63;;;3.33;;
3066;SDS011;1544;48.834;9.194;2022-10-23T11:59:51;2.47;;;1.57;;
3066;SDS011;1544;48.834;9.194;2022-10-23T12:08:22;1.50;;;1.40;;
3066;SDS011;1544;48.834;9.194;2022-10-23T12:11:03;1.50;;;1.40;;
3066;SDS011;1544;48.834;9.194;2022-10-23T12:16:20;1.70;;;1.60;;
3066;SDS011;1544;48.834;9.194;2022-10-23T12:18:55;2.50;;;1.33;;
3066;SDS011;1544;48.834;9.194;2022-10-23T12:21:34;1.40;;;1.30;;
3066;SDS011;1544;48.834;9.194;2022-10-23T12:30:28;1.20;;;1.10;;
3066;SDS011;1544;48.834;9.194;2022-10-23T12:33:56;2.67;;;1.20;;
3066;SDS011;1544;48.834;9.194;2022-10-23T12:37:09;1.30;;;1.20;;
3066;SDS011;1544;48.834;9.194;2022-10-23T12:40:00;2.17;;;1.30;;
3066;SDS011;1544;48.834;9.194;2022-10-23T12:42:35;1.40;;;1.27;;
3066;SDS011;1544;48.834;9.194;2022-10-23T12:45:16;1.20;;;1.10;;
3066;SDS011;1544;48.834;9.194;2022-10-23T12:48:00;1.43;;;1.17;;
3066;SDS011;1544;48.834;9.194;2022-10-23T12:50:36;1.60;;;1.27;;
3066;SDS011;1544;48.834;9.194;2022-10-23T12:53:14;1.30;;;1.20;;
3066;SDS011;1544;48.834;9.194;2022-10-23T12:55:53;1.50;;;1.40;;
3066;SDS011;1544;48.834;9.194;2022-10-23T12:58:35;1.10;;;1.10;;
3066;SDS011;1544;48.834;9.194;2022-10-23T13:01:20;1.53;;;1.30;;
3066;SDS011;1544;48.834;9.194;2022-10-23T13:07:04;1.50;;;1.20;;
3066;SDS011;1544;48.834;9.194;2022-10-23T13:09:40;1.50;;;1.40;;
3066;SDS011;1544;48.834;9.194;2022-10-23T13:12:21;1.50;;;1.30;;
3066;SDS011;1544;48.834;9.194;2022-10-23T13:15:22;3.10;;;2.90;;
3066;SDS011;1544;48.834;9.194;2022-10-23T13:18:00;2.00;;;1.90;;
3066;SDS011;1544;48.834;9.194;2022-10-23T13:20:37;1.60;;;1.50;;
3066;SDS011;1544;48.834;9.194;2022-10-23T13:29:28;3.03;;;2.73;;
3066;SDS011;1544;48.834;9.194;2022-10-23T13:32:10;3.50;;;3.00;;
3066;SDS011;1544;48.834;9.194;2022-10-23T13:34:55;3.13;;;2.83;;
3066;SDS011;1544;48.834;9.194;2022-10-23T13:37:43;2.13;;;1.93;;
3066;SDS011;1544;48.834;9.194;2022-10-23T13:40:23;2.10;;;1.70;;
3066;SDS011;1544;48.834;9.194;2022-10-23T13:43:00;2.10;;;1.90;;
3066;SDS011;1544;48.834;9.194;2022-10-23T13:45:35;1.73;;;1.53;;
3066;SDS011;1544;48.834;9.194;2022-10-23T13:48:14;2.23;;;2.00;;
3066;SDS011;1544;48.834;9.194;2022-10-23T13:50:49;1.73;;;1.63;;
3066;SDS011;1544;48.834;9.194;2022-10-23T13:53:24;2.27;;;1.63;;
3066;SDS011;1544;48.834;9.194;2022-10-23T13:55:59;1.53;;;1.43;;
3066;SDS011;1544;48.834;9.194;2022-10-23T13:58:34;1.43;;;1.33;;
3066;SDS011;1544;48.834;9.194;2022-10-23T14:01:15;1.33;;;1.23;;
3066;SDS011;1544;48.834;9.194;2022-10-23T14:04:05;1.83;;;1.40;;
3066;SDS011;1544;48.834;9.194;2022-10-23T14:06:41;1.53;;;1.43;;
3066;SDS011;1544;48.834;9.194;2022-10-23T14:09:17;1.53;;;1.43;;
3066;SDS011;1544;48.834;9.194;2022-10-23T14:11:52;1.50;;;1.40;;
3066;SDS011;1544;48.834;9.194;2022-10-23T14:14:27;1.57;;;1.40;;
3066;SDS011;1544;48.834;9.194;2022-10-23T14:17:02;1.63;;;1.47;;
3066;SDS011;1544;48.834;9.194;2022-10-23T14:19:37;2.20;;;1.97;;
3066;SDS011;1544;48.834;9.194;2022-10-23T14:22:13;1.73;;;1.50;;
3066;SDS011;1544;48.834;9.194;2022-10-23T14:24:48;1.47;;;1.37;;
3066;SDS011;1544;48.834;9.194;2022-10-23T14:27:23;2.03;;;1.83;;
3066;SDS011;1544;48.834;9.194;2022-10-23T14:29:59;2.70;;;1.80;;
3066;SDS011;1544;48.834;9.194;2022-10-23T14:32:34;2.33;;;2.23;;
3066;SDS011;1544;48.834;9.194;2022-10-23T14:35:09;2.27;;;2.07;;
3066;SDS011;1544;48.834;9.194;2022-10-23T14:37:44;2.90;;;2.13;;
3066;SDS011;1544;48.834;9.194;2022-10-23T14:40:19;3.80;;;3.53;;
3066;SDS011;1544;48.834;9.194;2022-10-23T14:42:54;3.00;;;2.73;;
3066;SDS011;1544;48.834;9.194;2022-10-23T14:45:29;2.93;;;2.60;;
3066;SDS011;1544;48.834;9.194;2022-10-23T14:48:05;2.43;;;2.30;;
3066;SDS011;1544;48.834;9.194;2022-10-23T14:50:44;2.30;;;2.10;;
3066;SDS011;1544;48.834;9.194;2022-10-23T14:53:22;1.97;;;1.87;;
3066;SDS011;1544;48.834;9.194;2022-10-23T14:56:00;2.87;;;2.60;;
3066;SDS011;1544;48.834;9.194;2022-10-23T14:58:37;2.33;;;2.13;;
3066;SDS011;1544;48.834;9.194;2022-10-23T15:01:12;2.00;;;1.90;;
3066;SDS011;1544;48.834;9.194;2022-10-23T15:03:47;2.13;;;1.93;;
3066;SDS011;1544;48.834;9.194;2022-10-23T15:06:27;2.87;;;2.47;;
3066;SDS011;1544;48.834;9.194;2022-10-23T15:09:02;3.87;;;2.13;;
3066;SDS011;1544;48.834;9.194;2022-10-23T15:11:38;2.20;;;2.00;;
3066;SDS011;1544;48.834;9.194;2022-10-23T15:14:13;2.20;;;1.90;;
3066;SDS011;1544;48.834;9.194;2022-10-23T15:16:48;2.03;;;1.93;;
3066;SDS011;1544;48.834;9.194;2022-10-23T15:19:23;2.70;;;2.50;;
3066;SDS011;1544;48.834;9.194;2022-10-23T15:21:58;2.50;;;2.40;;
3066;SDS011;1544;48.834;9.194;2022-10-23T15:24:34;2.90;;;2.70;;
3066;SDS011;1544;48.834;9.194;2022-10-23T15:27:09;3.00;;;2.80;;
3066;SDS011;1544;48.834;9.194;2022-10-23T15:29:44;3.67;;;3.40;;
3066;SDS011;1544;48.834;9.194;2022-10-23T15:32:20;3.00;;;2.80;;
3066;SDS011;1544;48.834;9.194;2022-10-23T15:34:55;2.77;;;2.57;;
3066;SDS011;1544;48.834;9.194;2022-10-23T15:37:31;3.10;;;2.77;;
3066;SDS011;1544;48.834;9.194;2022-10-23T15:40:06;3.27;;;2.57;;
3066;SDS011;1544;48.834;9.194;2022-10-23T15:42:42;2.80;;;2.60;;
3066;SDS011;1544;48.834;9.194;2022-10-23T15:45:17;2.77;;;2.40;;
3066;SDS011;1544;48.834;9.194;2022-10-23T15:47:52;2.57;;;2.37;;
3066;SDS011;1544;48.834;9.194;2022-10-23T15:50:27;2.33;;;2.23;;
3066;SDS011;1544;48.834;9.194;2022-10-23T15:53:02;2.87;;;2.67;;
3066;SDS011;1544;48.834;9.194;2022-10-23T15:55:37;2.43;;;2.23;;
3066;SDS011;1544;48.834;9.194;2022-10-23T15:58:12;5.03;;;2.63;;
3066;SDS011;1544;48.834;9.194;2022-10-23T16:00:47;2.23;;;2.10;;
3066;SDS011;1544;48.834;9.194;2022-10-23T16:03:22;3.20;;;2.30;;
3066;SDS011;1544;48.834;9.194;2022-10-23T16:05:57;2.67;;;2.47;;
3066;SDS011;1544;48.834;9.194;2022-10-23T16:08:32;3.10;;;2.90;;
3066;SDS011;1544;48.834;9.194;2022-10-23T16:11:15;2.33;;;2.20;;
3066;SDS011;1544;48.834;9.194;2022-10-23T16:13:54;2.97;;;2.77;;
3066;SDS011;1544;48.834;9.194;2022-10-23T16:16:31;3.00;;;2.80;;
3066;SDS011;1544;48.834;9.194;2022-10-23T16:19:08;5.50;;;5.00;;
3066;SDS011;1544;48.834;9.194;2022-10-23T16:21:44;8.80;;;7.37;;
3066;SDS011;1544;48.834;9.194;2022-10-23T16:24:19;5.30;;;4.90;;
3066;SDS011;1544;48.834;9.194;2022-10-23T16:26:54;4.60;;;4.20;;
3066;SDS011;1544;48.834;9.194;2022-10-23T16:29:30;3.13;;;2.87;;
3066;SDS011;1544;48.834;9.194;2022-10-23T16:32:05;3.30;;;3.00;;
3066;SDS011;1544;48.834;9.194;2022-10-23T16:34:40;3.23;;;3.03;;
3066;SDS011;1544;48.834;9.194;2022-10-23T16:37:15;3.13;;;2.90;;
3066;SDS011;1544;48.834;9.194;2022-10-23T16:40:05;3.53;;;3.23;;
3066;SDS011;1544;48.834;9.194;2022-10-23T16:43:10;4.60;;;3.60;;
3066;SDS011;1544;48.834;9.194;2022-10-23T16:46:04;4.07;;;3.73;;
3066;SDS011;1544;48.834;9.194;2022-10-23T16:48:43;3.40;;;3.07;;
3066;SDS011;1544;48.834;9.194;2022-10-23T16:51:19;3.30;;;3.00;;
3066;SDS011;1544;48.834;9.194;2022-10-23T16:53:57;3.33;;;3.00;;
3066;SDS011;1544;48.834;9.194;2022-10-23T16:56:32;4.60;;;3.03;;
3066;SDS011;1544;48.834;9.194;2022-10-23T16:59:08;4.90;;;3.20;;
3066;SDS011;1544;48.834;9.194;2022-10-23T17:01:43;3.17;;;2.97;;
3066;SDS011;1544;48.834;9.194;2022-10-23T17:04:18;4.30;;;3.90;;
3066;SDS011;1544;48.834;9.194;2022-10-23T17:06:53;5.70;;;3.83;;
3066;SDS011;1544;48.834;9.194;2022-10-23T17:09:29;3.50;;;3.20;;
3066;SDS011;1544;48.834;9.194;2022-10-23T17:12:05;3.53;;;3.23;;
3066;SDS011;1544;48.834;9.194;2022-10-23T17:14:40;3.10;;;2.73;;
3066;SDS011;1544;48.834;9.194;2022-10-23T17:17:15;3.23;;;2.93;;
3066;SDS011;1544;48.834;9.194;2022-10-23T17:19:50;4.00;;;3.70;;
3066;SDS011;1544;48.834;9.194;2022-10-23T17:22:25;3.30;;;3.00;;
3066;SDS011;1544;48.834;9.194;2022-10-23T17:25:01;3.20;;;3.00;;
3066;SDS011;1544;48.834;9.194;2022-10-23T17:27:36;3.60;;;3.30;;
3066;SDS011;1544;48.834;9.194;2022-10-23T17:30:11;4.63;;;3.00;;
3066;SDS011;1544;48.834;9.194;2022-10-23T17:32:46;3.10;;;2.80;;
3066;SDS011;1544;48.834;9.194;2022-10-23T17:35:21;3.30;;;3.00;;
3066;SDS011;1544;48.834;9.194;2022-10-23T17:37:56;3.57;;;2.90;;
3066;SDS011;1544;48.834;9.194;2022-10-23T17:40:31;3.60;;;2.87;;
3066;SDS011;1544;48.834;9.194;2022-10-23T17:43:06;5.27;;;3.93;;
3066;SDS011;1544;48.834;9.194;2022-10-23T17:45:41;6.20;;;5.60;;
3066;SDS011;1544;48.834;9.194;2022-10-23T17:48:18;10.67;;;6.27;;
3066;SDS011;1544;48.834;9.194;2022-10-23T17:51:00;7.20;;;5.70;;
3066;SDS011;1544;48.834;9.194;2022-10-23T17:53:40;6.70;;;6.10;;
3066;SDS011;1544;48.834;9.194;2022-10-23T17:56:18;6.90;;;6.30;;
3066;SDS011;1544;48.834;9.194;2022-10-23T17:59:00;6.40;;;5.90;;
3066;SDS011;1544;48.834;9.194;2022-10-23T18:01:40;7.33;;;5.93;;
3066;SDS011;1544;48.834;9.194;2022-10-23T18:04:20;6.50;;;5.63;;
3066;SDS011;1544;48.834;9.194;2022-10-23T18:06:55;4.70;;;3.80;;
3066;SDS011;1544;48.834;9.194;2022-10-23T18:09:30;3.13;;;2.47;;
3066;SDS011;1544;48.834;9.194;2022-10-23T18:12:05;3.20;;;2.40;;
3066;SDS011;1544;48.834;9.194;2022-10-23T18:14:40;2.83;;;2.33;;
3066;SDS011;1544;48.834;9.194;2022-10-23T18:17:15;3.27;;;2.20;;
3066;SDS011;1544;48.834;9.194;2022-10-23T18:19:50;2.13;;;2.00;;
3066;SDS011;1544;48.834;9.194;2022-10-23T18:22:25;3.00;;;2.80;;
3066;SDS011;1544;48.834;9.194;2022-10-23T18:25:02;3.10;;;2.80;;
3066;SDS011;1544;48.834;9.194;2022-10-23T18:27:38;4.73;;;4.20;;
3066;SDS011;1544;48.834;9.194;2022-10-23T18:30:14;4.73;;;4.10;;
3066;SDS011;1544;48.834;9.194;2022-10-23T18:32:49;5.33;;;4.90;;
3066;SDS011;1544;48.834;9.194;2022-10-23T18:35:24;4.60;;;2.77;;